< < Back
Terminal Aerodrome Forecast


Current Version              Previous Versions:   1  2  3  4  5  6  7  8  9  

Terminal Aerodrome Forecast

112
FTUS42 KJAX 222300
TAFJAX
TAF
KJAX 222320Z 2300/2324 05005KT P6SM SKC
     FM230200 36003KT P6SM SKC
     FM231400 03009KT P6SM SKC=

Latest METAR

021
SAUS80 KWBC 230400 CCA
MTRJAX
METAR KJAX 230356Z 00000KT 10SM FEW250 12/11 A3006 RMK AO2 SLP179
T01170111 $


USA.gov is the U.S. government's official web portal to all federal, state and local government web resources and services.